createdAt,value
2023-04-10T00:00:57.245Z,6.66
2023-04-10T00:03:25.685Z,6.51
2023-04-10T00:05:54.768Z,6.64
2023-04-10T00:08:23.971Z,6.77
2023-04-10T00:10:54.338Z,6.77
2023-04-10T00:13:22.183Z,6.69
2023-04-10T00:15:50.760Z,6.87
2023-04-10T00:18:18.617Z,6.95
2023-04-10T00:20:46.592Z,6.93
2023-04-10T00:23:14.448Z,6.88
2023-04-10T00:25:42.274Z,6.76
2023-04-10T00:28:11.404Z,6.98
2023-04-10T00:30:45.992Z,7.14
2023-04-10T00:33:13.822Z,6.82
2023-04-10T00:35:41.679Z,6.90
2023-04-10T00:38:09.506Z,6.91
2023-04-10T00:40:37.403Z,7.12
2023-04-10T00:43:05.465Z,7.06
2023-04-10T00:45:34.704Z,7.10
2023-04-10T00:48:02.609Z,7.05
2023-04-10T00:50:30.770Z,7.01
2023-04-10T00:52:59.673Z,6.89
2023-04-10T00:55:27.661Z,6.41
2023-04-10T00:57:58.128Z,6.53
2023-04-10T01:00:25.911Z,6.75
2023-04-10T01:02:55.883Z,6.86
2023-04-10T01:05:24.429Z,6.75
2023-04-10T01:08:03.490Z,6.77
2023-04-10T01:10:42.137Z,6.85
2023-04-10T01:13:17.463Z,7.02
2023-04-10T01:15:49.245Z,6.94
2023-04-10T01:18:23.967Z,7.06
2023-04-10T01:20:51.748Z,7.07
2023-04-10T01:23:41.061Z,7.32
2023-04-10T01:26:13.989Z,7.15
2023-04-10T01:29:01.255Z,7.13
2023-04-10T01:31:36.341Z,6.94
2023-04-10T01:34:09.350Z,7.13
2023-04-10T01:36:48.469Z,7.07
2023-04-10T01:39:20.008Z,7.09
2023-04-10T01:41:51.699Z,7.01
2023-04-10T01:44:26.846Z,7.04
2023-04-10T01:46:56.488Z,7.01
2023-04-10T01:49:27.605Z,7.11
2023-04-10T01:52:03.347Z,7.03
2023-04-10T01:54:33.628Z,6.99
2023-04-10T01:57:04.013Z,7.24
2023-04-10T01:59:40.382Z,6.91
2023-04-10T02:02:11.734Z,7.00
2023-04-10T02:04:40.496Z,7.03
2023-04-10T02:07:12.744Z,7.06
2023-04-10T02:09:47.719Z,6.94
2023-04-10T02:12:19.591Z,7.20
2023-04-10T02:14:50.900Z,7.17
2023-04-10T02:17:24.459Z,7.08
2023-04-10T02:19:55.589Z,7.31
2023-04-10T02:22:25.569Z,7.29
2023-04-10T02:24:53.652Z,7.21
2023-04-10T02:27:29.062Z,7.18
2023-04-10T02:29:58.193Z,7.27
2023-04-10T02:32:27.223Z,7.39
2023-04-10T02:34:55.100Z,7.31
2023-04-10T02:37:23.055Z,7.44
2023-04-10T02:39:51.757Z,7.48
2023-04-10T02:42:21.742Z,7.46
2023-04-10T02:44:49.835Z,7.18
2023-04-10T02:47:19.342Z,7.36
2023-04-10T02:49:48.354Z,7.48
2023-04-10T02:52:17.893Z,7.43
2023-04-10T02:54:46.288Z,7.20
2023-04-10T02:57:14.107Z,7.18
2023-04-10T02:59:42.128Z,7.32
2023-04-10T03:02:10.668Z,7.56
2023-04-10T03:04:41.049Z,7.68
2023-04-10T03:07:08.879Z,7.57
2023-04-10T03:09:39.184Z,7.66
2023-04-10T03:12:07.050Z,7.69
2023-04-10T03:14:34.873Z,7.55
2023-04-10T03:17:02.720Z,7.58
2023-04-10T03:19:30.767Z,7.50
2023-04-10T03:21:59.933Z,7.36
2023-04-10T03:24:28.896Z,7.15
2023-04-10T03:26:58.594Z,7.30
2023-04-10T03:29:26.442Z,7.30
2023-04-10T03:31:57.513Z,7.32
2023-04-10T03:34:26.123Z,7.33
2023-04-10T03:36:53.912Z,7.21
2023-04-10T03:39:23.613Z,7.27
2023-04-10T03:41:51.411Z,7.24
2023-04-10T03:44:20.340Z,7.25
2023-04-10T03:46:48.250Z,7.24
2023-04-10T03:49:16.657Z,7.15
2023-04-10T03:51:44.730Z,7.13
2023-04-10T03:54:12.497Z,7.01
2023-04-10T03:56:41.645Z,7.05
2023-04-10T03:59:09.444Z,6.90
2023-04-10T04:01:41.066Z,6.87
2023-04-10T04:04:12.037Z,6.94
2023-04-10T04:06:51.850Z,7.06
2023-04-10T04:09:35.015Z,7.02
2023-04-10T04:12:17.849Z,6.97
2023-04-10T04:14:51.660Z,6.90
2023-04-10T04:17:43.003Z,7.03
2023-04-10T04:20:11.465Z,6.66
2023-04-10T04:23:10.728Z,6.55
2023-04-10T04:25:59.046Z,6.53
2023-04-10T04:28:53.558Z,6.74
2023-04-10T04:31:33.263Z,6.73
2023-04-10T04:34:19.738Z,6.70
2023-04-10T04:36:50.492Z,6.53
2023-04-10T04:39:56.972Z,6.45
2023-04-10T04:42:24.882Z,6.51
2023-04-10T04:45:17.502Z,6.49
2023-04-10T04:48:05.526Z,6.67
2023-04-10T04:50:56.084Z,6.81
2023-04-10T04:53:42.207Z,7.12
2023-04-10T04:56:30.319Z,7.10
2023-04-10T04:59:10.518Z,7.14
2023-04-10T05:02:02.905Z,7.46
2023-04-10T05:04:53.797Z,7.75
2023-04-10T05:07:41.834Z,7.74
2023-04-10T05:10:26.090Z,7.85
2023-04-10T05:13:10.639Z,7.74
2023-04-10T05:16:08.658Z,7.73
2023-04-10T05:18:58.330Z,7.72
2023-04-10T05:21:46.441Z,7.73
2023-04-10T05:24:28.333Z,7.72
2023-04-10T05:27:14.866Z,7.65
2023-04-10T05:30:02.766Z,7.68
2023-04-10T05:32:47.316Z,7.58
2023-04-10T05:35:36.061Z,7.71
2023-04-10T05:38:18.340Z,7.51
2023-04-10T05:41:04.693Z,7.54
2023-04-10T05:43:41.667Z,7.74
2023-04-10T05:46:14.950Z,7.50
2023-04-10T05:49:02.740Z,7.61
2023-04-10T05:51:51.978Z,7.68
2023-04-10T05:54:58.081Z,7.50
2023-04-10T05:57:46.085Z,7.77
2023-04-10T06:00:37.000Z,7.86
2023-04-10T06:03:23.929Z,8.06
2023-04-10T06:05:56.924Z,7.92
2023-04-10T06:08:26.215Z,7.91
2023-04-10T06:10:54.548Z,8.21
2023-04-10T06:13:22.484Z,8.18
2023-04-10T06:15:53.405Z,8.41
2023-04-10T06:18:21.411Z,8.40
2023-04-10T06:20:49.472Z,8.81
2023-04-10T06:23:17.300Z,9.10
2023-04-10T06:25:46.494Z,9.01
2023-04-10T06:28:14.805Z,9.55
2023-04-10T06:30:45.848Z,10.00
2023-04-10T06:33:13.847Z,9.60
2023-04-10T06:35:44.986Z,9.99
2023-04-10T06:38:13.206Z,10.42
2023-04-10T06:40:42.013Z,10.84
2023-04-10T06:43:11.245Z,10.78
2023-04-10T06:45:40.134Z,11.53
2023-04-10T06:48:07.971Z,11.92
2023-04-10T06:50:35.863Z,12.16
2023-04-10T06:53:03.650Z,12.37
2023-04-10T06:55:31.727Z,12.57
2023-04-10T06:57:59.645Z,12.48
2023-04-10T07:00:28.826Z,12.60
2023-04-10T07:02:56.704Z,12.61
2023-04-10T07:05:24.717Z,12.74
2023-04-10T07:07:53.320Z,12.82
2023-04-10T07:10:21.154Z,12.50
2023-04-10T07:12:48.933Z,12.89
2023-04-10T07:15:17.055Z,13.16
2023-04-10T07:17:46.360Z,13.27
2023-04-10T07:20:14.247Z,13.49
2023-04-10T07:22:42.047Z,13.69
2023-04-10T07:25:10.444Z,13.21
2023-04-10T07:27:38.201Z,13.95
2023-04-10T07:30:07.179Z,13.72
2023-04-10T07:32:35.370Z,13.94
2023-04-10T07:35:04.902Z,13.60
2023-04-10T07:37:32.768Z,13.83
2023-04-10T07:40:00.696Z,14.55
2023-04-10T07:42:28.561Z,14.15
2023-04-10T07:44:58.828Z,14.11
2023-04-10T07:47:26.762Z,14.56
2023-04-10T07:49:54.541Z,14.63
2023-04-10T07:52:23.679Z,14.21
2023-04-10T07:54:51.647Z,14.76
2023-04-10T07:57:19.434Z,15.11
2023-04-10T07:59:47.459Z,15.25
2023-04-10T08:02:15.384Z,14.69
2023-04-10T08:04:43.592Z,14.70
2023-04-10T08:07:11.542Z,14.52
2023-04-10T08:09:40.850Z,14.70
2023-04-10T08:12:08.724Z,14.82
2023-04-10T08:14:36.593Z,15.02
2023-04-10T08:17:04.435Z,15.06
2023-04-10T08:19:32.352Z,14.83
2023-04-10T08:22:00.215Z,14.70
2023-04-10T08:24:28.018Z,15.15
2023-04-10T08:26:57.158Z,14.76
2023-04-10T08:29:24.934Z,14.84
2023-04-10T08:31:52.796Z,14.63
2023-04-10T08:34:20.764Z,14.47
2023-04-10T08:36:48.548Z,14.59
2023-04-10T08:39:16.515Z,14.87
2023-04-10T08:41:44.523Z,14.78
2023-04-10T08:44:14.208Z,15.17
2023-04-10T08:46:44.473Z,15.26
2023-04-10T08:49:18.733Z,15.46
2023-04-10T08:51:52.129Z,15.02
2023-04-10T08:54:22.318Z,15.18
2023-04-10T08:56:52.165Z,15.48
2023-04-10T08:59:21.641Z,14.91
2023-04-10T09:01:50.038Z,15.29
2023-04-10T09:04:18.284Z,15.09
2023-04-10T09:06:46.362Z,15.65
2023-04-10T09:09:14.152Z,15.80
2023-04-10T09:12:00.550Z,15.93
2023-04-10T09:14:31.814Z,15.85
2023-04-10T09:17:17.368Z,16.38
2023-04-10T09:19:46.299Z,16.45
2023-04-10T09:22:14.283Z,16.60
2023-04-10T09:24:43.777Z,15.89
2023-04-10T09:27:12.396Z,16.38
2023-04-10T09:29:43.793Z,16.79
2023-04-10T09:32:11.880Z,17.06
2023-04-10T09:34:58.174Z,16.67
2023-04-10T09:37:33.238Z,16.74
2023-04-10T09:40:01.426Z,16.80
2023-04-10T09:42:33.734Z,16.64
2023-04-10T09:45:03.050Z,17.00
2023-04-10T09:47:31.617Z,16.78
2023-04-10T09:50:01.384Z,16.99
2023-04-10T09:52:30.839Z,17.21
2023-04-10T09:55:00.510Z,17.83
2023-04-10T09:57:30.539Z,17.93
2023-04-10T09:59:59.929Z,18.12
2023-04-10T10:02:31.558Z,18.13
2023-04-10T10:05:01.373Z,17.87
2023-04-10T10:07:31.078Z,17.56
2023-04-10T10:09:59.571Z,18.57
2023-04-10T10:12:34.016Z,17.70
2023-04-10T10:15:06.083Z,18.34
2023-04-10T10:17:43.178Z,18.57
2023-04-10T10:20:12.639Z,18.33
2023-04-10T10:22:41.448Z,18.09
2023-04-10T10:25:10.633Z,17.92
2023-04-10T10:27:39.205Z,17.37
2023-04-10T10:30:28.265Z,18.24
2023-04-10T10:33:00.166Z,19.45
2023-04-10T10:35:29.999Z,18.74
2023-04-10T10:37:59.983Z,18.30
2023-04-10T10:40:32.450Z,18.14
2023-04-10T10:43:10.034Z,18.05
2023-04-10T10:45:45.225Z,18.90
2023-04-10T10:48:15.702Z,18.79
2023-04-10T10:50:53.458Z,19.09
2023-04-10T10:53:44.193Z,18.69
2023-04-10T10:56:39.731Z,18.78
2023-04-10T10:59:07.573Z,18.76
2023-04-10T11:01:35.486Z,20.87
2023-04-10T11:04:44.688Z,19.51
2023-04-10T11:07:13.161Z,20.92
2023-04-10T11:09:47.064Z,20.49
2023-04-10T11:12:15.458Z,19.22
2023-04-10T11:14:44.990Z,19.16
2023-04-10T11:17:12.981Z,19.69
2023-04-10T11:20:01.869Z,19.36
2023-04-10T11:22:30.066Z,19.07
2023-04-10T11:25:00.355Z,19.32
2023-04-10T11:27:53.053Z,20.04
2023-04-10T11:30:28.621Z,20.76
2023-04-10T11:32:56.815Z,21.69
2023-04-10T11:35:27.185Z,21.96
2023-04-10T11:38:16.085Z,22.42
2023-04-10T11:41:02.867Z,21.64
2023-04-10T11:43:31.310Z,21.57
2023-04-10T11:46:08.520Z,21.93
2023-04-10T11:48:37.629Z,22.68
2023-04-10T11:51:12.229Z,22.75
2023-04-10T11:53:40.302Z,23.09
2023-04-10T11:56:17.051Z,22.50
2023-04-10T11:58:44.970Z,22.88
2023-04-10T12:01:14.627Z,23.37
2023-04-10T12:03:43.865Z,22.79
2023-04-10T12:06:14.380Z,20.88
2023-04-10T12:08:45.258Z,20.81
2023-04-10T12:11:14.475Z,20.94
2023-04-10T12:13:42.306Z,21.08
2023-04-10T12:16:11.868Z,22.94
2023-04-10T12:18:39.841Z,21.25
2023-04-10T12:21:08.916Z,21.10
2023-04-10T12:23:39.992Z,22.79
2023-04-10T12:26:15.731Z,22.60
2023-04-10T12:28:50.403Z,24.60
2023-04-10T12:31:18.458Z,23.92
2023-04-10T12:33:47.022Z,23.24
2023-04-10T12:36:22.133Z,24.78
2023-04-10T12:38:51.495Z,23.80
2023-04-10T12:41:23.593Z,24.43
2023-04-10T12:43:53.037Z,23.62
2023-04-10T12:46:25.486Z,24.91
2023-04-10T12:48:53.649Z,24.88
2023-04-10T12:51:21.665Z,25.50
2023-04-10T12:53:51.005Z,23.99
2023-04-10T12:56:20.380Z,24.48
2023-04-10T12:58:48.227Z,24.29
2023-04-10T13:01:16.351Z,24.43
2023-04-10T13:03:44.272Z,24.71
2023-04-10T13:06:12.208Z,23.88
2023-04-10T13:08:40.036Z,24.71
2023-04-10T13:11:09.402Z,23.71
2023-04-10T13:13:37.180Z,24.27
2023-04-10T13:16:05.401Z,24.94
2023-04-10T13:18:33.204Z,24.34
2023-04-10T13:21:00.996Z,26.14
2023-04-10T13:23:28.796Z,27.16
2023-04-10T13:25:58.987Z,28.16
2023-04-10T13:28:28.163Z,26.29
2023-04-10T13:30:56.420Z,26.69
2023-04-10T13:33:24.975Z,26.31
2023-04-10T13:35:52.827Z,25.83
2023-04-10T13:38:21.482Z,23.11
2023-04-10T13:40:49.351Z,20.93
2023-04-10T13:43:17.128Z,20.55
2023-04-10T13:45:46.287Z,20.34
2023-04-10T13:48:17.571Z,20.18
2023-04-10T13:50:46.695Z,19.28
2023-04-10T13:53:14.442Z,19.43
2023-04-10T13:55:43.773Z,19.17
2023-04-10T13:58:13.277Z,19.39
2023-04-10T14:00:41.357Z,19.68
2023-04-10T14:03:12.317Z,19.41
2023-04-10T14:05:40.511Z,19.86
2023-04-10T14:08:11.630Z,18.27
2023-04-10T14:10:40.429Z,18.96
2023-04-10T14:13:09.063Z,18.42
2023-04-10T14:15:36.880Z,18.64
2023-04-10T14:18:04.772Z,18.58
2023-04-10T14:20:35.285Z,18.93
2023-04-10T14:23:03.309Z,18.97
2023-04-10T14:25:31.169Z,19.08
2023-04-10T14:27:59.367Z,18.79
2023-04-10T14:30:30.638Z,19.11
2023-04-10T14:32:58.590Z,19.50
2023-04-10T14:35:26.446Z,19.52
2023-04-10T14:37:55.716Z,20.07
2023-04-10T14:40:23.585Z,19.07
2023-04-10T14:42:52.760Z,18.90
2023-04-10T14:45:20.734Z,19.17
2023-04-10T14:47:48.586Z,18.83
2023-04-10T14:50:16.506Z,18.96
2023-04-10T14:52:44.301Z,18.57
2023-04-10T14:55:13.621Z,18.73
2023-04-10T14:57:41.456Z,18.62
2023-04-10T15:00:10.504Z,18.98
2023-04-10T15:02:38.948Z,18.88
2023-04-10T15:05:07.770Z,18.35
2023-04-10T15:07:35.538Z,18.49
2023-04-10T15:10:03.445Z,18.77
2023-04-10T15:12:32.645Z,18.81
2023-04-10T15:15:00.860Z,18.50
2023-04-10T15:17:29.846Z,18.60
2023-04-10T15:19:57.786Z,18.37
2023-04-10T15:22:26.844Z,18.13
2023-04-10T15:24:54.627Z,18.36
2023-04-10T15:27:22.386Z,18.31
2023-04-10T15:29:51.560Z,18.06
2023-04-10T15:32:19.523Z,18.01
2023-04-10T15:34:47.373Z,17.52
2023-04-10T15:37:15.210Z,17.55
2023-04-10T15:39:43.007Z,17.66
2023-04-10T15:42:10.847Z,17.68
2023-04-10T15:44:38.636Z,17.29
2023-04-10T15:47:07.923Z,17.29
2023-04-10T15:49:38.467Z,16.97
2023-04-10T15:52:07.040Z,17.39
2023-04-10T15:54:35.588Z,17.36
2023-04-10T15:57:04.277Z,17.09
2023-04-10T15:59:33.314Z,17.40
2023-04-10T16:02:01.269Z,16.97
2023-04-10T16:04:31.338Z,17.43
2023-04-10T16:06:59.304Z,17.31
2023-04-10T16:09:27.291Z,17.09
2023-04-10T16:11:56.102Z,17.26
2023-04-10T16:14:24.105Z,17.01
2023-04-10T16:16:52.076Z,16.81
2023-04-10T16:19:19.962Z,17.11
2023-04-10T16:21:50.159Z,17.07
2023-04-10T16:24:18.295Z,16.87
2023-04-10T16:26:46.059Z,17.05
2023-04-10T16:29:13.906Z,17.03
2023-04-10T16:31:41.778Z,17.24
2023-04-10T16:34:09.761Z,17.41
2023-04-10T16:36:37.997Z,17.97
2023-04-10T16:39:07.484Z,18.08
2023-04-10T16:41:35.527Z,18.07
2023-04-10T16:44:03.289Z,18.20
2023-04-10T16:46:33.035Z,17.75
2023-04-10T16:49:01.535Z,18.16
2023-04-10T16:51:29.716Z,17.67
2023-04-10T16:53:57.538Z,17.57
2023-04-10T16:56:26.954Z,17.28
2023-04-10T16:58:55.148Z,17.38
2023-04-10T17:01:26.080Z,17.26
2023-04-10T17:03:55.050Z,17.39
2023-04-10T17:06:23.136Z,17.05
2023-04-10T17:08:50.996Z,17.33
2023-04-10T17:11:18.774Z,17.06
2023-04-10T17:13:47.975Z,17.12
2023-04-10T17:16:16.154Z,17.05
2023-04-10T17:18:43.985Z,16.79
2023-04-10T17:21:12.253Z,16.85
2023-04-10T17:23:40.142Z,16.67
2023-04-10T17:26:13.207Z,16.70
2023-04-10T17:28:41.086Z,16.73
2023-04-10T17:31:10.240Z,16.53
2023-04-10T17:33:38.141Z,16.51
2023-04-10T17:36:06.353Z,16.68
2023-04-10T17:38:34.325Z,16.51
2023-04-10T17:41:02.103Z,16.35
2023-04-10T17:43:30.223Z,16.27
2023-04-10T17:45:58.014Z,16.29
2023-04-10T17:48:27.335Z,16.16
2023-04-10T17:50:55.312Z,15.93
2023-04-10T17:53:23.055Z,15.75
2023-04-10T17:55:50.888Z,15.97
2023-04-10T17:58:18.636Z,15.80
2023-04-10T18:00:47.640Z,15.66
2023-04-10T18:03:15.604Z,15.09
2023-04-10T18:05:44.852Z,15.10
2023-04-10T18:08:12.592Z,15.00
2023-04-10T18:10:40.384Z,15.06
2023-04-10T18:13:08.155Z,14.96
2023-04-10T18:15:35.958Z,14.93
2023-04-10T18:18:03.765Z,14.94
2023-04-10T18:20:31.544Z,14.98
2023-04-10T18:23:01.569Z,14.74
2023-04-10T18:25:30.400Z,14.93
2023-04-10T18:28:13.638Z,15.07
2023-04-10T18:30:43.553Z,14.88
2023-04-10T18:33:11.719Z,14.56
2023-04-10T18:35:39.895Z,14.08
2023-04-10T18:38:09.084Z,13.80
2023-04-10T18:40:37.608Z,13.29
2023-04-10T18:43:05.393Z,13.24
2023-04-10T18:45:34.316Z,12.91
2023-04-10T18:48:02.398Z,12.93
2023-04-10T18:50:30.419Z,12.87
2023-04-10T18:52:58.216Z,12.85
2023-04-10T18:55:27.383Z,12.76
2023-04-10T18:57:55.191Z,12.79
2023-04-10T19:00:23.425Z,12.79
2023-04-10T19:02:51.354Z,12.96
2023-04-10T19:05:19.231Z,12.91
2023-04-10T19:08:00.818Z,12.91
2023-04-10T19:10:33.323Z,12.79
2023-04-10T19:13:01.088Z,13.08
2023-04-10T19:15:28.968Z,12.89
2023-04-10T19:17:56.899Z,13.29
2023-04-10T19:20:51.049Z,13.31
2023-04-10T19:23:13.132Z,13.30
2023-04-10T19:25:43.610Z,13.39
2023-04-10T19:28:11.766Z,13.22
2023-04-10T19:30:39.614Z,13.19
2023-04-10T19:33:07.439Z,13.04
2023-04-10T19:35:35.385Z,13.06
2023-04-10T19:38:03.298Z,13.42
2023-04-10T19:40:31.707Z,13.14
2023-04-10T19:43:01.997Z,13.11
2023-04-10T19:45:32.289Z,13.21
2023-04-10T19:48:00.411Z,12.91
2023-04-10T19:50:29.417Z,12.84
2023-04-10T19:52:57.282Z,12.93
2023-04-10T19:55:25.163Z,13.15
2023-04-10T19:57:52.992Z,12.72
2023-04-10T20:00:22.132Z,12.72
2023-04-10T20:02:50.226Z,12.62
2023-04-10T20:05:18.288Z,12.51
2023-04-10T20:07:46.218Z,12.39
2023-04-10T20:10:14.036Z,12.43
2023-04-10T20:12:41.918Z,12.08
2023-04-10T20:15:10.778Z,11.88
2023-04-10T20:17:39.985Z,11.52
2023-04-10T20:20:08.967Z,11.61
2023-04-10T20:22:37.009Z,11.54
2023-04-10T20:25:05.156Z,11.67
2023-04-10T20:27:33.050Z,11.40
2023-04-10T20:30:00.852Z,11.31
2023-04-10T20:32:28.747Z,11.12
2023-04-10T20:34:58.004Z,11.29
2023-04-10T20:37:25.831Z,11.37
2023-04-10T20:39:53.585Z,11.59
2023-04-10T20:42:23.117Z,11.51
2023-04-10T20:44:51.029Z,11.34
2023-04-10T20:47:19.137Z,11.20
2023-04-10T20:49:46.895Z,11.31
2023-04-10T20:52:16.155Z,11.33
2023-04-10T20:54:43.903Z,10.75
2023-04-10T20:57:11.732Z,10.75
2023-04-10T20:59:39.563Z,10.60
2023-04-10T21:02:07.877Z,10.67
2023-04-10T21:04:35.818Z,10.91
2023-04-10T21:07:03.639Z,10.73
2023-04-10T21:09:32.835Z,10.88
2023-04-10T21:12:00.721Z,10.87
2023-04-10T21:14:28.603Z,10.40
2023-04-10T21:16:56.459Z,10.56
2023-04-10T21:19:24.418Z,10.56
2023-04-10T21:21:52.205Z,10.47
2023-04-10T21:24:19.961Z,10.13
2023-04-10T21:26:49.261Z,10.13
2023-04-10T21:29:17.097Z,10.18
2023-04-10T21:31:44.920Z,10.14
2023-04-10T21:34:13.429Z,9.86
2023-04-10T21:36:41.284Z,10.15
2023-04-10T21:39:09.391Z,9.98
2023-04-10T21:41:37.303Z,9.98
2023-04-10T21:44:06.882Z,10.13
2023-04-10T21:46:34.795Z,10.12
2023-04-10T21:49:03.077Z,10.16
2023-04-10T21:51:31.182Z,10.06
2023-04-10T21:53:58.968Z,9.71
2023-04-10T21:56:26.792Z,9.76
2023-04-10T21:58:55.108Z,9.75
2023-04-10T22:01:24.426Z,9.77
2023-04-10T22:03:53.825Z,9.54
2023-04-10T22:06:21.976Z,9.58
2023-04-10T22:08:49.778Z,9.69
2023-04-10T22:11:17.609Z,9.67
2023-04-10T22:13:45.446Z,9.29
2023-04-10T22:16:13.228Z,9.16
2023-04-10T22:18:42.379Z,9.47
2023-04-10T22:21:10.198Z,9.41
2023-04-10T22:23:38.012Z,9.55
2023-04-10T22:26:06.205Z,9.31
2023-04-10T22:28:33.949Z,9.16
2023-04-10T22:31:01.884Z,9.38
2023-04-10T22:33:33.226Z,9.64
2023-04-10T22:36:02.539Z,9.76
2023-04-10T22:38:30.346Z,9.69
2023-04-10T22:40:58.136Z,9.37
2023-04-10T22:43:25.935Z,9.32
2023-04-10T22:45:53.865Z,9.47
2023-04-10T22:48:21.803Z,9.46
2023-04-10T22:50:49.562Z,9.30
2023-04-10T22:53:18.806Z,9.49
2023-04-10T22:55:46.617Z,9.27
2023-04-10T22:58:14.372Z,9.05
2023-04-10T23:00:42.147Z,9.21
2023-04-10T23:03:10.059Z,9.62
2023-04-10T23:05:38.121Z,9.46
2023-04-10T23:08:06.011Z,9.39
2023-04-10T23:10:35.101Z,8.97
2023-04-10T23:13:02.873Z,9.04
2023-04-10T23:15:30.664Z,8.89
2023-04-10T23:17:58.492Z,9.16
2023-04-10T23:20:26.307Z,9.16
2023-04-10T23:22:56.137Z,9.21
2023-04-10T23:25:24.155Z,9.11
2023-04-10T23:27:53.336Z,8.94
2023-04-10T23:30:21.224Z,9.16
2023-04-10T23:32:49.026Z,8.87
2023-04-10T23:35:17.014Z,8.99
2023-04-10T23:37:44.786Z,9.21
2023-04-10T23:40:13.379Z,9.44
2023-04-10T23:42:41.173Z,9.45
2023-04-10T23:45:11.773Z,9.53
2023-04-10T23:47:40.224Z,9.38
2023-04-10T23:50:09.132Z,9.35
2023-04-10T23:52:36.944Z,9.43
2023-04-10T23:55:05.373Z,9.33
2023-04-10T23:57:33.231Z,9.24
